Time;durP1;ratioP1;P1;durP2;ratioP2;P2;SDS_P1;SDS_P2;PMS_P1;PMS_P2;Temp;Humidity;BMP_temperature;BMP_pressure;BME280_temperature;BME280_humidity;BME280_pressure;Samples;Min_cycle;Max_cycle;Signal;HPM_P1;HPM_P2
2023/08/31 00:00:44;;;;;;;41.33;23.00;;;;;;;13.15;100.00;99472.97;5046190;28;20029;-77
2023/08/31 00:03:12;;;;;;;43.67;23.58;;;;;;;13.08;100.00;99471.28;5031403;28;20459;-77
2023/08/31 00:05:40;;;;;;;41.65;22.92;;;;;;;13.05;100.00;99473.72;5030246;28;20065;-78
2023/08/31 00:08:07;;;;;;;43.00;23.33;;;;;;;13.01;100.00;99472.59;5031114;28;20180;-78
2023/08/31 00:10:35;;;;;;;40.00;22.98;;;;;;;12.98;100.00;99470.38;5036898;28;20037;-78
2023/08/31 00:13:01;;;;;;;43.60;23.55;;;;;;;13.03;100.00;99464.94;5034992;28;20071;-78
2023/08/31 00:15:29;;;;;;;47.65;24.58;;;;;;;13.02;100.00;99452.34;5030233;28;20037;-78
2023/08/31 00:17:55;;;;;;;37.63;22.80;;;;;;;12.95;100.00;99463.50;5036285;28;20211;-78
2023/08/31 00:20:21;;;;;;;45.42;23.38;;;;;;;12.92;100.00;99469.50;5037379;28;20037;-77
2023/08/31 00:22:48;;;;;;;38.92;22.20;;;;;;;12.90;100.00;99461.56;5032003;28;20060;-78
2023/08/31 00:25:14;;;;;;;39.65;22.40;;;;;;;12.89;100.00;99461.81;5037308;28;20037;-78
2023/08/31 00:27:40;;;;;;;41.47;23.23;;;;;;;12.88;100.00;99460.16;5034472;28;20485;-77
2023/08/31 00:30:13;;;;;;;39.28;22.00;;;;;;;12.89;100.00;99464.56;5034641;28;20041;-77
2023/08/31 00:32:42;;;;;;;38.03;23.10;;;;;;;12.89;100.00;99468.13;5034611;28;20037;-78
2023/08/31 00:35:09;;;;;;;38.40;22.08;;;;;;;12.83;100.00;99479.28;5034371;28;20440;-78
2023/08/31 00:37:35;;;;;;;35.53;21.58;;;;;;;12.77;100.00;99482.00;5034491;28;20036;-77
2023/08/31 00:40:04;;;;;;;42.53;21.00;;;;;;;12.72;100.00;99478.38;5033662;28;20042;-78
2023/08/31 00:42:31;;;;;;;33.22;19.55;;;;;;;12.73;100.00;99480.03;5033995;28;20040;-77
2023/08/31 00:44:57;;;;;;;36.72;19.88;;;;;;;12.71;100.00;99482.19;5031067;28;20041;-78
2023/08/31 00:47:23;;;;;;;37.78;20.83;;;;;;;12.65;100.00;99476.69;5039399;28;20060;-78
2023/08/31 00:49:49;;;;;;;36.65;19.77;;;;;;;12.63;100.00;99475.28;5034342;28;20037;-78
2023/08/31 00:52:17;;;;;;;37.22;19.38;;;;;;;12.65;100.00;99473.09;5033157;28;20052;-78
2023/08/31 00:54:43;;;;;;;34.20;20.02;;;;;;;12.63;100.00;99475.28;5033040;28;20842;-78
2023/08/31 00:57:09;;;;;;;36.97;20.65;;;;;;;12.62;100.00;99473.63;5039156;28;20382;-77
2023/08/31 00:59:36;;;;;;;40.10;20.48;;;;;;;12.60;100.00;99473.06;5037800;28;20025;-77
2023/08/31 01:02:11;;;;;;;34.42;19.60;;;;;;;12.55;100.00;99482.03;5035419;28;20087;-77
2023/08/31 01:05:01;;;;;;;34.42;19.77;;;;;;;12.42;100.00;99486.00;5033390;28;20569;-78
2023/08/31 01:07:58;;;;;;;36.47;20.83;;;;;;;12.51;100.00;99480.91;5036469;28;20511;-77
2023/08/31 01:10:53;;;;;;;34.28;19.35;;;;;;;12.48;100.00;99479.53;5053580;28;20037;-78
2023/08/31 01:13:24;;;;;;;32.97;19.25;;;;;;;12.49;100.00;99486.66;5035731;28;20056;-78
2023/08/31 01:15:59;;;;;;;38.00;19.73;;;;;;;12.44;100.00;99483.84;5025179;28;20486;-78
2023/08/31 01:18:27;;;;;;;34.35;19.70;;;;;;;12.36;100.00;99482.41;5034069;28;22205;-77
2023/08/31 01:21:17;;;;;;;32.58;18.50;;;;;;;12.36;100.00;99492.50;5037611;28;20052;-78
2023/08/31 01:23:54;;;;;;;35.75;18.50;;;;;;;12.28;100.00;99501.19;5036617;28;20040;-77
2023/08/31 01:26:21;;;;;;;27.30;18.17;;;;;;;12.22;100.00;99508.50;5033682;28;20060;-78
2023/08/31 01:28:51;;;;;;;30.75;17.73;;;;;;;12.11;100.00;99518.47;5034220;28;20033;-78
2023/08/31 01:31:17;;;;;;;32.25;18.67;;;;;;;12.05;100.00;99520.31;5032218;28;20048;-77
2023/08/31 01:33:43;;;;;;;31.40;18.20;;;;;;;12.00;100.00;99516.69;5039323;28;20569;-78
2023/08/31 01:36:22;;;;;;;26.05;17.58;;;;;;;11.96;100.00;99510.06;5033792;28;20095;-78
2023/08/31 01:39:07;;;;;;;37.95;19.20;;;;;;;11.90;100.00;99512.72;5037434;28;20056;-79
2023/08/31 01:41:36;;;;;;;38.72;19.35;;;;;;;11.90;100.00;99520.91;5033661;28;20037;-78
2023/08/31 01:44:03;;;;;;;32.05;18.58;;;;;;;11.85;100.00;99515.38;5037417;28;20037;-78
2023/08/31 01:46:30;;;;;;;33.08;18.20;;;;;;;11.83;100.00;99516.75;5033530;28;20034;-78
2023/08/31 01:48:57;;;;;;;35.33;20.13;;;;;;;11.84;100.00;99519.19;5031602;28;20033;-77
2023/08/31 01:51:23;;;;;;;29.90;18.40;;;;;;;11.88;100.00;99520.34;5033165;28;20340;-77
2023/08/31 01:53:49;;;;;;;35.65;18.10;;;;;;;11.86;100.00;99521.69;5032135;28;20431;-76
2023/08/31 01:56:15;;;;;;;33.28;19.23;;;;;;;11.88;100.00;99514.88;5032999;28;20040;-77
2023/08/31 01:58:42;;;;;;;36.45;19.50;;;;;;;11.87;100.00;99515.97;5036189;28;20048;-77
2023/08/31 02:01:08;;;;;;;35.58;18.90;;;;;;;11.84;100.00;99521.13;5016537;28;20447;-78
2023/08/31 02:03:34;;;;;;;33.47;19.35;;;;;;;11.79;100.00;99522.69;5034023;28;20030;-78
2023/08/31 02:06:00;;;;;;;37.65;19.20;;;;;;;11.81;100.00;99522.44;5022118;28;20053;-77
2023/08/31 02:08:26;;;;;;;32.63;18.58;;;;;;;11.80;100.00;99518.06;5045972;28;20045;-77
2023/08/31 02:10:54;;;;;;;36.90;18.95;;;;;;;11.76;100.00;99515.00;5032692;28;20042;-77
2023/08/31 02:13:23;;;;;;;42.72;21.48;;;;;;;11.80;100.00;99516.16;5041519;28;20391;-77
2023/08/31 02:15:55;;;;;;;39.13;21.27;;;;;;;11.83;100.00;99511.28;5031330;28;20401;-77
2023/08/31 02:18:21;;;;;;;46.88;21.25;;;;;;;11.85;100.00;99515.38;5037266;28;20047;-77
2023/08/31 02:20:53;;;;;;;42.65;21.80;;;;;;;11.85;100.00;99517.31;5032354;28;20413;-77
2023/08/31 02:23:19;;;;;;;46.13;21.50;;;;;;;11.79;100.00;99521.88;5032434;28;20385;-77
2023/08/31 02:25:45;;;;;;;43.33;21.08;;;;;;;11.79;100.00;99519.94;5039248;28;20100;-77
2023/08/31 02:28:11;;;;;;;44.10;21.70;;;;;;;11.71;100.00;99508.66;5032242;28;20442;-76
2023/08/31 02:30:37;;;;;;;46.65;21.73;;;;;;;11.82;100.00;99531.47;5039318;28;20032;-76
2023/08/31 02:33:05;;;;;;;44.45;21.42;;;;;;;11.78;100.00;99521.03;5036705;28;20456;-76
2023/08/31 02:35:31;;;;;;;46.50;23.05;;;;;;;11.83;100.00;99527.66;5032404;28;20033;-76
2023/08/31 02:37:58;;;;;;;49.97;23.52;;;;;;;11.83;100.00;99520.28;5030868;28;20041;-76
2023/08/31 02:40:24;;;;;;;49.38;23.60;;;;;;;11.83;100.00;99520.28;5032140;28;20080;-76
2023/08/31 02:42:53;;;;;;;54.65;23.95;;;;;;;11.87;100.00;99513.22;5032097;28;20438;-76
2023/08/31 02:45:20;;;;;;;50.72;24.48;;;;;;;11.91;100.00;99505.38;5032068;28;20428;-77
2023/08/31 02:47:49;;;;;;;54.08;25.98;;;;;;;11.97;100.00;99506.25;5036431;28;20039;-77
2023/08/31 02:50:16;;;;;;;56.20;25.40;;;;;;;12.05;100.00;99503.09;5038651;28;20057;-77
2023/08/31 02:52:43;;;;;;;52.08;25.10;;;;;;;12.02;100.00;99503.63;5031886;28;20037;-78
2023/08/31 02:55:10;;;;;;;52.78;24.95;;;;;;;12.10;100.00;99516.03;5043678;28;20033;-77
2023/08/31 02:57:36;;;;;;;59.03;24.77;;;;;;;12.09;100.00;99509.72;5032076;28;20048;-77
2023/08/31 03:00:03;;;;;;;52.50;24.88;;;;;;;12.05;100.00;99520.31;5030810;28;20037;-77
2023/08/31 03:02:29;;;;;;;53.13;25.73;;;;;;;12.08;100.00;99524.47;5037722;28;20512;-77
2023/08/31 03:04:56;;;;;;;54.03;24.70;;;;;;;12.13;100.00;99521.78;5037596;28;20040;-77
2023/08/31 03:07:24;;;;;;;55.08;24.25;;;;;;;12.11;100.00;99518.47;5040590;28;20052;-77
2023/08/31 03:09:50;;;;;;;51.22;24.42;;;;;;;12.13;100.00;99527.25;5030715;28;20037;-77
2023/08/31 03:12:16;;;;;;;47.15;24.63;;;;;;;12.11;100.00;99532.16;5031995;28;20034;-77
2023/08/31 03:14:42;;;;;;;48.58;25.38;;;;;;;12.10;100.00;99538.69;5030320;28;20091;-77
2023/08/31 03:17:09;;;;;;;48.30;23.33;;;;;;;12.08;100.00;99538.13;5031789;28;20061;-77
2023/08/31 03:19:35;;;;;;;56.30;24.63;;;;;;;12.05;100.00;99541.38;5031493;28;20055;-77
2023/08/31 03:22:01;;;;;;;47.03;22.98;;;;;;;12.07;100.00;99545.53;5041824;28;20036;-75
2023/08/31 03:24:27;;;;;;;50.38;23.15;;;;;;;12.08;100.00;99546.34;5033277;28;20039;-75
2023/08/31 03:26:53;;;;;;;46.38;22.67;;;;;;;12.06;100.00;99548.50;5030580;28;20610;-76
2023/08/31 03:29:20;;;;;;;43.05;21.92;;;;;;;12.02;100.00;99547.34;5031737;28;20025;-76
2023/08/31 03:31:47;;;;;;;42.30;22.00;;;;;;;12.03;100.00;99547.09;5030602;28;22146;-76
2023/08/31 03:34:13;;;;;;;42.88;21.48;;;;;;;12.02;100.00;99548.16;5029929;28;20026;-76
2023/08/31 03:36:40;;;;;;;49.60;22.73;;;;;;;11.99;100.00;99548.63;5033360;28;20033;-76
2023/08/31 03:39:06;;;;;;;52.90;23.90;;;;;;;11.97;100.00;99544.53;5031471;28;20041;-76
2023/08/31 03:41:32;;;;;;;47.72;22.63;;;;;;;11.96;100.00;99543.69;5030322;28;20466;-76
2023/08/31 03:43:59;;;;;;;48.15;22.25;;;;;;;11.99;100.00;99543.19;5031460;28;20042;-76
2023/08/31 03:46:26;;;;;;;48.53;21.92;;;;;;;12.01;100.00;99541.03;5030566;28;20460;-77
2023/08/31 03:48:53;;;;;;;42.03;20.98;;;;;;;12.02;100.00;99547.34;5041141;28;20029;-75
2023/08/31 03:51:19;;;;;;;44.65;21.50;;;;;;;12.01;100.00;99546.50;5017567;28;20037;-76
2023/08/31 03:53:45;;;;;;;46.63;21.75;;;;;;;12.05;100.00;99549.56;5030400;28;20033;-76
2023/08/31 03:56:11;;;;;;;42.63;21.25;;;;;;;12.03;100.00;99554.47;5030557;28;20045;-75
2023/08/31 03:58:38;;;;;;;39.88;20.80;;;;;;;12.02;100.00;99563.75;5015059;28;20069;-76
2023/08/31 04:01:05;;;;;;;35.13;19.90;;;;;;;11.98;100.00;99573.50;5040648;28;20052;-76
2023/08/31 04:03:31;;;;;;;43.65;21.13;;;;;;;11.97;100.00;99580.06;5035869;28;20037;-76
2023/08/31 04:05:57;;;;;;;41.53;20.45;;;;;;;11.93;100.00;99574.25;5031111;28;20045;-76
2023/08/31 04:08:23;;;;;;;38.50;19.77;;;;;;;11.92;100.00;99584.34;5039044;28;20405;-75
2023/08/31 04:10:49;;;;;;;41.47;20.98;;;;;;;11.93;100.00;99583.28;5049862;28;20069;-76
2023/08/31 04:13:15;;;;;;;40.38;20.70;;;;;;;11.98;100.00;99577.06;5046135;28;20128;-76
2023/08/31 04:15:41;;;;;;;39.95;21.23;;;;;;;12.01;100.00;99583.97;5045801;28;22201;-76
2023/08/31 04:18:08;;;;;;;39.92;20.63;;;;;;;12.01;100.00;99583.97;5050864;28;20030;-77
2023/08/31 04:20:34;;;;;;;41.30;21.13;;;;;;;12.06;100.00;99575.84;5051057;28;20036;-76
2023/08/31 04:23:00;;;;;;;44.03;21.00;;;;;;;12.07;100.00;99581.06;5046060;28;20041;-77
2023/08/31 04:25:31;;;;;;;37.63;19.80;;;;;;;12.05;100.00;99587.84;5050734;28;20032;-75
2023/08/31 04:27:57;;;;;;;40.30;21.05;;;;;;;12.06;100.00;99592.22;5053212;28;20040;-76
2023/08/31 04:30:23;;;;;;;42.42;20.95;;;;;;;12.10;100.00;99589.84;5046386;28;20033;-76
2023/08/31 04:32:49;;;;;;;40.22;20.55;;;;;;;12.12;100.00;99590.41;5048962;28;20530;-76
2023/08/31 04:35:15;;;;;;;39.22;19.85;;;;;;;12.15;100.00;99592.63;5053046;28;20037;-76
2023/08/31 04:37:41;;;;;;;43.92;21.15;;;;;;;12.18;100.00;99601.13;5036269;28;20109;-75
2023/08/31 04:40:08;;;;;;;38.08;19.98;;;;;;;12.23;100.00;99600.38;5048149;28;20124;-74
2023/08/31 04:42:34;;;;;;;46.67;21.33;;;;;;;12.28;100.00;99599.63;5052379;28;20040;-77
2023/08/31 04:45:01;;;;;;;41.60;19.60;;;;;;;12.23;100.00;99586.72;5042477;28;20037;-77
2023/08/31 04:47:27;;;;;;;41.03;21.27;;;;;;;12.33;100.00;99599.69;5045701;28;20049;-77
2023/08/31 04:49:53;;;;;;;36.88;20.45;;;;;;;12.32;100.00;99595.31;5034344;28;20033;-78
2023/08/31 04:52:19;;;;;;;37.20;20.48;;;;;;;12.39;100.00;99601.41;5034445;28;20042;-77
2023/08/31 04:54:45;;;;;;;38.47;20.58;;;;;;;12.45;100.00;99594.09;5034741;28;20030;-87
2023/08/31 04:57:11;;;;;;;40.28;21.15;;;;;;;12.55;100.00;99607.06;5039494;28;20103;-80
2023/08/31 04:59:37;;;;;;;46.88;20.98;;;;;;;12.52;100.00;99611.13;5040741;28;20044;-78
2023/08/31 05:02:03;;;;;;;42.15;20.30;;;;;;;12.57;100.00;99624.06;5037823;28;20113;-78
2023/08/31 05:04:30;;;;;;;36.28;19.88;;;;;;;12.61;100.00;99625.19;5040939;28;20433;-76
2023/08/31 05:06:56;;;;;;;40.42;20.33;;;;;;;12.61;100.00;99636.97;5034971;28;20115;-78
2023/08/31 05:09:25;;;;;;;44.03;21.63;;;;;;;12.65;100.00;99629.06;5035295;28;20505;-77
2023/08/31 05:11:51;;;;;;;42.22;21.85;;;;;;;12.64;100.00;99641.94;5039041;28;20022;-78
2023/08/31 05:14:17;;;;;;;39.13;20.92;;;;;;;12.69;100.00;99643.88;5038422;28;20064;-77
2023/08/31 05:16:44;;;;;;;43.17;22.42;;;;;;;12.70;100.00;99650.19;5042174;28;20093;-78
2023/08/31 05:19:10;;;;;;;46.75;21.58;;;;;;;12.70;100.00;99648.28;5034211;28;20041;-76
2023/08/31 05:21:36;;;;;;;40.78;21.13;;;;;;;12.70;100.00;99656.47;5040369;28;20037;-76
2023/08/31 05:24:03;;;;;;;46.13;21.95;;;;;;;12.68;100.00;99663.31;5040419;28;20120;-77
2023/08/31 05:26:29;;;;;;;41.00;22.60;;;;;;;12.74;100.00;99663.13;5034154;28;20099;-76
2023/08/31 05:28:55;;;;;;;48.13;23.00;;;;;;;12.75;100.00;99672.16;5039510;28;20493;-76
2023/08/31 05:31:21;;;;;;;44.08;23.67;;;;;;;12.85;100.00;99680.47;5038929;28;20080;-77
2023/08/31 05:33:47;;;;;;;45.33;25.00;;;;;;;12.74;100.00;99687.75;5042793;28;20095;-76
2023/08/31 05:36:13;;;;;;;38.35;24.20;;;;;;;12.63;100.00;99696.91;5042081;28;20402;-76
2023/08/31 05:38:40;;;;;;;46.58;24.17;;;;;;;12.80;100.00;99700.41;5031901;28;20029;-76
2023/08/31 05:41:09;;;;;;;41.83;25.80;;;;;;;12.77;100.00;99698.19;5033999;28;20120;-75
2023/08/31 05:43:36;;;;;;;49.15;26.42;;;;;;;12.84;100.00;99699.91;5033542;28;20040;-77
2023/08/31 05:46:03;;;;;;;46.35;27.70;;;;;;;12.73;100.00;99715.38;5033585;28;20045;-78
2023/08/31 05:48:29;;;;;;;49.80;27.80;;;;;;;12.77;100.00;99716.50;5040113;28;20049;-77
2023/08/31 05:50:55;;;;;;;46.60;27.45;;;;;;;12.75;100.00;99724.16;5033578;28;20107;-78
2023/08/31 05:53:22;;;;;;;44.38;28.33;;;;;;;12.76;100.00;99723.06;5033700;28;20087;-78
2023/08/31 05:55:48;;;;;;;56.67;31.17;;;;;;;12.96;100.00;99717.00;5032395;28;20048;-78
2023/08/31 05:58:14;;;;;;;55.42;30.67;;;;;;;13.08;100.00;99717.72;5033402;28;20029;-78
2023/08/31 06:00:40;;;;;;;52.00;31.85;;;;;;;13.19;100.00;99731.50;5033346;28;20473;-78
2023/08/31 06:03:07;;;;;;;53.90;31.23;;;;;;;13.34;100.00;99747.28;5034365;28;20048;-80
2023/08/31 06:05:34;;;;;;;49.47;31.10;;;;;;;13.18;100.00;99771.78;5039319;28;20049;-78
2023/08/31 06:08:00;;;;;;;45.28;28.83;;;;;;;13.01;100.00;99780.06;5041706;28;20400;-77
2023/08/31 06:10:26;;;;;;;46.95;29.52;;;;;;;13.11;100.00;99784.00;5034133;28;20049;-77
2023/08/31 06:12:52;;;;;;;44.28;29.10;;;;;;;13.16;100.00;99797.75;5033576;28;20045;-79
2023/08/31 06:15:18;;;;;;;46.00;28.42;;;;;;;13.21;100.00;99797.81;5034944;28;20041;-77
2023/08/31 06:17:45;;;;;;;51.22;30.40;;;;;;;13.13;100.00;99811.97;5036344;28;20036;-76
2023/08/31 06:20:11;;;;;;;49.75;29.50;;;;;;;13.22;100.00;99818.63;5040856;28;20045;-76
2023/08/31 06:22:37;;;;;;;46.00;29.63;;;;;;;13.22;100.00;99824.09;5041059;28;20148;-76
2023/08/31 06:25:05;;;;;;;44.58;30.63;;;;;;;13.38;100.00;99831.44;5037366;28;20087;-75
2023/08/31 06:27:31;;;;;;;47.33;29.27;;;;;;;13.43;100.00;99844.41;5033955;28;20469;-77
2023/08/31 06:29:57;;;;;;;47.15;28.95;;;;;;;13.54;100.00;99855.50;5044725;28;20041;-78
2023/08/31 06:32:23;;;;;;;40.70;27.25;;;;;;;13.65;100.00;99860.84;5042420;28;20552;-79
2023/08/31 06:34:49;;;;;;;45.78;29.45;;;;;;;13.78;100.00;99877.94;5032006;28;20029;-77
2023/08/31 06:37:15;;;;;;;44.20;27.35;;;;;;;14.02;100.00;99877.66;5032075;28;20469;-79
2023/08/31 06:39:42;;;;;;;42.05;26.45;;;;;;;14.13;100.00;99897.78;5032407;28;20042;-78
2023/08/31 06:42:08;;;;;;;38.70;25.67;;;;;;;14.40;100.00;99911.50;5032830;28;20055;-79
2023/08/31 06:44:34;;;;;;;36.38;23.95;;;;;;;14.58;100.00;99928.66;5039707;28;20365;-79
2023/08/31 06:47:01;;;;;;;30.33;23.17;;;;;;;14.79;100.00;99947.00;5031621;28;20041;-77
2023/08/31 06:49:27;;;;;;;39.13;24.90;;;;;;;15.04;100.00;99958.44;5046361;28;20045;-77
2023/08/31 06:51:53;;;;;;;32.85;22.15;;;;;;;14.98;100.00;99960.31;5031196;28;20029;-78
2023/08/31 06:54:20;;;;;;;30.77;20.20;;;;;;;14.99;100.00;99967.47;5032682;28;20037;-78
2023/08/31 06:56:46;;;;;;;30.73;20.10;;;;;;;15.12;100.00;99968.94;5044444;28;20034;-78
2023/08/31 06:59:13;;;;;;;25.40;17.55;;;;;;;14.98;100.00;99971.31;5034107;28;20041;-80
2023/08/31 07:01:39;;;;;;;27.35;17.60;;;;;;;14.99;100.00;99977.66;5032303;28;20030;-79
2023/08/31 07:04:05;;;;;;;20.77;15.68;;;;;;;14.76;100.00;99974.16;5032592;28;20438;-79
2023/08/31 07:06:33;;;;;;;17.30;14.23;;;;;;;14.77;100.00;99984.06;5030848;28;20039;-79
2023/08/31 07:08:59;;;;;;;18.73;14.25;;;;;;;14.85;100.00;99991.81;5030387;28;20045;-79
2023/08/31 07:11:27;;;;;;;18.52;14.00;;;;;;;14.89;100.00;99990.19;5021508;28;20547;-80
2023/08/31 07:13:53;;;;;;;20.58;14.43;;;;;;;15.11;100.00;99997.50;5030299;28;20457;-80
2023/08/31 07:16:19;;;;;;;20.10;12.95;;;;;;;14.95;100.00;99999.31;5030387;28;20041;-80
2023/08/31 07:18:45;;;;;;;20.85;14.27;;;;;;;15.08;100.00;100001.59;5033850;28;20063;-81
2023/08/31 07:21:11;;;;;;;16.15;13.52;;;;;;;14.92;100.00;100006.13;5048074;28;20037;-78
2023/08/31 07:23:37;;;;;;;17.63;13.45;;;;;;;14.72;100.00;100006.78;5035275;28;20026;-77
2023/08/31 07:26:04;;;;;;;19.25;13.95;;;;;;;14.76;100.00;100005.16;5032376;28;20033;-79
2023/08/31 07:28:31;;;;;;;20.13;14.07;;;;;;;14.63;100.00;99998.16;5032020;28;20120;-78
2023/08/31 07:31:05;;;;;;;16.83;13.65;;;;;;;14.80;100.00;99998.06;5032538;28;20038;-80
2023/08/31 07:33:32;;;;;;;16.88;13.88;;;;;;;14.76;100.00;99996.94;5030742;28;20036;-79
2023/08/31 07:35:59;;;;;;;16.65;13.23;;;;;;;14.87;100.00;99997.84;5037927;28;20400;-79
2023/08/31 07:38:26;;;;;;;16.52;12.95;;;;;;;15.02;100.00;99993.59;5047726;28;20103;-78
2023/08/31 07:40:53;;;;;;;17.70;13.25;;;;;;;15.47;100.00;100005.16;5032117;28;20041;-79
2023/08/31 07:43:19;;;;;;;20.02;12.57;;;;;;;15.32;100.00;100014.13;5034546;28;20052;-78
2023/08/31 07:45:45;;;;;;;15.48;12.13;;;;;;;15.31;100.00;100004.25;5032375;28;20072;-79
2023/08/31 07:48:11;;;;;;;14.27;10.77;;;;;;;15.41;100.00;100018.03;5032550;28;20564;-79
2023/08/31 07:50:40;;;;;;;13.30;10.48;;;;;;;15.75;100.00;100027.88;5032599;28;20041;-79
2023/08/31 07:53:07;;;;;;;12.77;9.70;;;;;;;15.95;100.00;100036.25;5037783;28;20541;-79
2023/08/31 07:55:33;;;;;;;10.80;8.85;;;;;;;16.14;100.00;100046.78;5032217;28;20042;-78
2023/08/31 07:58:01;;;;;;;11.55;8.88;;;;;;;15.95;100.00;100041.78;5032470;28;20388;-79
2023/08/31 08:00:27;;;;;;;10.40;8.05;;;;;;;16.40;100.00;100041.38;5032103;28;20030;-80
2023/08/31 08:02:53;;;;;;;9.70;7.97;;;;;;;16.40;100.00;100044.13;5039516;28;20036;-81
2023/08/31 08:05:19;;;;;;;11.18;8.55;;;;;;;16.14;100.00;100044.03;5037680;28;20398;-82
2023/08/31 08:07:45;;;;;;;12.23;8.93;;;;;;;16.13;100.00;100052.56;5032564;28;20056;-82
2023/08/31 08:10:12;;;;;;;8.98;7.75;;;;;;;16.13;100.00;100050.63;5038465;28;20257;-87
2023/08/31 08:12:39;;;;;;;12.60;8.43;;;;;;;16.41;100.00;100055.97;5032754;28;20029;-83
2023/08/31 08:15:09;;;;;;;9.83;8.03;;;;;;;16.37;100.00;100061.19;5039146;28;20037;-83
2023/08/31 08:17:36;;;;;;;9.95;7.40;;;;;;;16.32;100.00;100052.91;5041236;28;20036;-83
2023/08/31 08:20:03;;;;;;;9.15;6.60;;;;;;;16.20;100.00;100067.75;5041433;28;20052;-77
2023/08/31 08:22:29;;;;;;;7.65;6.60;;;;;;;16.05;100.00;100068.50;5031835;28;20134;-80
2023/08/31 08:24:55;;;;;;;9.52;6.90;;;;;;;16.18;100.00;100075.44;5035404;28;20029;-77
2023/08/31 08:27:21;;;;;;;9.40;6.57;;;;;;;16.35;100.00;100077.13;5035962;28;20036;-76
2023/08/31 08:29:47;;;;;;;8.63;6.13;;;;;;;16.69;100.00;100062.91;5036246;28;20128;-77
2023/08/31 08:32:13;;;;;;;8.85;6.47;;;;;;;17.03;100.00;100070.72;5036239;28;20041;-78
2023/08/31 08:34:39;;;;;;;9.18;7.15;;;;;;;17.23;100.00;100066.31;5038350;28;20115;-77
2023/08/31 08:37:06;;;;;;;8.43;6.25;;;;;;;17.57;100.00;100063.00;5034540;28;20045;-79
2023/08/31 08:39:32;;;;;;;9.02;6.45;;;;;;;17.59;100.00;100068.22;5031586;28;20514;-76
2023/08/31 08:41:58;;;;;;;9.60;6.07;;;;;;;17.46;100.00;100072.38;5037642;28;20028;-78
2023/08/31 08:44:31;;;;;;;9.68;6.47;;;;;;;17.13;100.00;100061.66;5045369;28;20033;-78
2023/08/31 08:47:00;;;;;;;10.70;6.38;;;;;;;17.32;100.00;100070.19;5047081;28;20029;-79
2023/08/31 08:49:29;;;;;;;8.52;6.00;;;;;;;17.54;100.00;100067.13;5049448;28;20119;-79
2023/08/31 08:51:55;;;;;;;8.80;6.22;;;;;;;18.02;100.00;100068.72;5048074;28;20432;-79
2023/08/31 08:54:22;;;;;;;9.57;6.25;;;;;;;17.98;100.00;100070.34;5044013;28;20416;-77
2023/08/31 08:56:48;;;;;;;6.82;5.60;;;;;;;18.40;100.00;100071.84;5049024;28;20452;-77
2023/08/31 08:59:15;;;;;;;11.32;5.55;;;;;;;18.71;100.00;100079.16;5049407;28;20033;-78
2023/08/31 09:01:41;;;;;;;10.48;5.88;;;;;;;18.71;100.00;100076.41;5047713;28;20038;-78
2023/08/31 09:04:09;;;;;;;6.85;5.03;;;;;;;18.11;100.00;100077.25;5046203;28;20033;-78
2023/08/31 09:06:35;;;;;;;;;;;;;;;18.54;100.00;100074.81;5049237;28;20036;-77
2023/08/31 09:09:02;;;;;;;7.45;5.20;;;;;;;18.94;100.00;100063.00;5038630;28;19931;-80
2023/08/31 09:11:28;;;;;;;7.78;5.10;;;;;;;18.93;100.00;100066.88;5045059;28;20084;-77
2023/08/31 09:13:57;;;;;;;6.85;4.60;;;;;;;19.10;100.00;100070.09;5051558;28;20032;-79
2023/08/31 09:16:28;;;;;;;6.93;4.55;;;;;;;19.04;100.00;100068.47;5039732;28;20465;-78
2023/08/31 09:18:58;;;;;;;7.25;4.20;;;;;;;19.16;100.00;100070.03;5045399;28;20477;-81
2023/08/31 09:21:37;;;;;;;6.38;4.20;;;;;;;18.69;100.00;100073.91;5048191;28;20061;-78
2023/08/31 09:24:07;;;;;;;7.13;4.20;;;;;;;18.96;100.00;100063.53;5044614;28;20116;-79
2023/08/31 09:26:43;;;;;;;5.95;4.30;;;;;;;18.78;100.00;100065.84;5037875;28;20115;-79
2023/08/31 09:29:09;;;;;;;8.80;4.25;;;;;;;19.19;100.00;100075.00;5034339;28;20060;-77
2023/08/31 09:31:36;;;;;;;8.73;4.90;;;;;;;19.22;100.00;100066.13;5034443;28;20119;-77
2023/08/31 09:34:03;;;;;;;6.68;4.30;;;;;;;19.01;100.00;100071.00;5045153;28;20091;-77
2023/08/31 09:36:29;;;;;;;6.10;3.88;;;;;;;19.09;100.00;100064.84;5040722;28;20593;-75
2023/08/31 09:38:59;;;;;;;7.88;3.50;;;;;;;18.85;100.00;100081.31;5038818;28;20056;-78
2023/08/31 09:41:25;;;;;;;5.90;4.00;;;;;;;18.93;100.00;100058.56;5016525;28;20025;-78
2023/08/31 09:43:51;;;;;;;7.07;3.92;;;;;;;18.58;100.00;100061.28;5034475;28;20489;-80
2023/08/31 09:46:19;;;;;;;7.18;4.10;;;;;;;19.33;100.00;100067.66;5034590;28;20393;-78
2023/08/31 09:48:46;;;;;;;6.43;4.35;;;;;;;19.13;100.00;100056.81;5033599;28;20451;-79
2023/08/31 09:51:17;;;;;;;7.72;4.50;;;;;;;18.86;100.00;100066.38;5038823;28;20041;-79
2023/08/31 09:53:48;;;;;;;5.65;4.22;;;;;;;18.58;100.00;100060.47;5034088;28;20408;-81
2023/08/31 09:56:21;;;;;;;7.82;4.10;;;;;;;18.46;100.00;100056.09;5033554;28;20596;-80
2023/08/31 09:58:48;;;;;;;6.20;4.15;;;;;;;18.48;100.00;100062.16;5020435;28;20036;-80
2023/08/31 10:01:14;;;;;;;6.93;4.33;;;;;;;18.44;100.00;100065.78;5050557;28;20048;-80
2023/08/31 10:03:41;;;;;;;10.15;4.88;;;;;;;18.80;100.00;100058.09;5041633;28;20363;-80
2023/08/31 10:06:08;;;;;;;5.65;4.35;;;;;;;19.17;100.00;100063.41;5051216;28;20052;-80
2023/08/31 10:08:34;;;;;;;6.88;4.15;;;;;;;18.75;100.00;100051.78;5047554;28;20041;-80
2023/08/31 10:11:03;;;;;;;6.63;4.70;;;;;;;18.72;100.00;100066.19;5051934;28;20041;-80
2023/08/31 10:13:36;;;;;;;5.47;4.22;;;;;;;19.10;100.00;100072.84;5045390;28;20044;-80
2023/08/31 10:16:05;;;;;;;5.85;4.03;;;;;;;19.42;100.00;100067.06;5044696;28;20033;-79
2023/08/31 10:18:33;;;;;;;8.35;4.15;;;;;;;19.63;100.00;100059.38;5045566;28;20091;-79
2023/08/31 10:21:00;;;;;;;5.35;3.60;;;;;;;;;;5052766;28;20037;-77
2023/08/31 10:23:26;;;;;;;5.43;3.67;;;;;;;20.83;100.00;100062.41;5043109;28;20048;-79
2023/08/31 10:25:53;;;;;;;5.22;3.60;;;;;;;21.00;99.93;100081.25;5040813;28;20049;-80
2023/08/31 10:28:25;;;;;;;5.32;3.50;;;;;;;23.20;88.11;100080.28;5045765;28;20045;-79
2023/08/31 10:31:15;;;;;;;6.50;3.03;;;;;;;23.48;78.12;100069.03;5045926;28;20033;-80
2023/08/31 10:33:44;;;;;;;7.20;2.80;;;;;;;22.02;81.16;100077.00;5048577;28;20041;-80
2023/08/31 10:36:16;;;;;;;5.55;2.90;;;;;;;21.27;88.30;100066.66;5045883;28;20041;-79
2023/08/31 10:38:46;;;;;;;5.78;2.80;;;;;;;20.45;92.28;100071.50;5036648;28;20034;-77
2023/08/31 10:41:13;;;;;;;4.25;2.83;;;;;;;20.62;96.48;100075.69;5033330;28;20501;-78
2023/08/31 10:43:57;;;;;;;6.07;3.20;;;;;;;21.86;88.81;100076.50;5037102;28;20037;-79
2023/08/31 10:46:35;;;;;;;4.68;2.58;;;;;;;22.25;86.37;100071.56;5035201;28;20573;-79
2023/08/31 10:49:11;;;;;;;4.70;3.30;;;;;;;21.67;84.83;100068.25;5034767;28;20033;-79
2023/08/31 10:51:43;;;;;;;4.85;3.80;;;;;;;21.69;85.59;100074.31;5032467;28;20496;-79
2023/08/31 10:54:13;;;;;;;6.10;3.28;;;;;;;23.17;75.78;100069.81;5035720;28;20113;-79
2023/08/31 10:56:58;;;;;;;5.38;3.60;;;;;;;22.92;70.14;100075.66;5032003;28;20026;-80
2023/08/31 10:59:25;;;;;;;4.78;3.63;;;;;;;20.70;84.91;100072.25;5032312;28;20403;-80
2023/08/31 11:01:55;;;;;;;6.72;4.13;;;;;;;19.76;96.39;100082.78;5039741;28;20078;-79
2023/08/31 11:04:23;;;;;;;6.22;4.18;;;;;;;19.48;99.42;100080.53;5032263;28;20048;-78
2023/08/31 11:06:49;;;;;;;;;;;;;;;19.88;99.51;100074.06;5047825;28;20033;-78
2023/08/31 11:09:21;;;;;;;6.68;3.95;;;;;;;20.94;92.79;100072.19;5038053;28;19917;-80
2023/08/31 11:11:48;;;;;;;5.05;3.67;;;;;;;20.41;92.89;100075.94;5043255;28;20041;-80
2023/08/31 11:14:15;;;;;;;8.87;4.20;;;;;;;19.31;98.49;100075.44;5033787;28;20088;-79